Time;durP1;ratioP1;P1;durP2;ratioP2;P2;SDS_P1;SDS_P2;PMS_P1;PMS_P2;Temp;Humidity;BMP_temperature;BMP_pressure;BME280_temperature;BME280_humidity;BME280_pressure;Samples;Min_cycle;Max_cycle;Signal;HPM_P1;HPM_P2
2023/12/26 00:02:23;;;;;;;3.50;1.30;;;;;;;;;;5000179;28;92361;-80
2023/12/26 00:04:50;;;;;;;2.45;1.00;;;;;;;;;;5000757;28;92377;-81
2023/12/26 00:07:16;;;;;;;2.92;1.05;;;;;;;;;;5001695;28;92346;-81
2023/12/26 00:09:43;;;;;;;3.33;1.10;;;;;;;;;;5001006;28;94779;-81
2023/12/26 00:12:09;;;;;;;3.65;1.20;;;;;;;;;;4984427;28;94765;-81
2023/12/26 00:14:37;;;;;;;2.72;1.10;;;;;;;;;;5002849;28;92775;-82
2023/12/26 00:17:03;;;;;;;3.60;1.10;;;;;;;;;;5008801;28;92732;-82
2023/12/26 00:19:30;;;;;;;3.80;1.20;;;;;;;;;;5008180;28;94999;-83
2023/12/26 00:21:57;;;;;;;3.25;1.10;;;;;;;;;;5034625;28;97008;-82
2023/12/26 00:24:24;;;;;;;4.25;1.10;;;;;;;;;;5004416;27;93794;-79
2023/12/26 00:26:50;;;;;;;5.75;1.20;;;;;;;;;;5012132;28;92187;-81
2023/12/26 00:29:17;;;;;;;3.53;1.20;;;;;;;;;;5039457;27;92422;-82
2023/12/26 00:31:44;;;;;;;2.90;1.10;;;;;;;;;;5022790;28;93229;-81
2023/12/26 00:34:10;;;;;;;2.80;1.20;;;;;;;;;;5026396;27;92193;-80
2023/12/26 00:36:37;;;;;;;4.38;1.25;;;;;;;;;;5003854;28;92006;-80
2023/12/26 00:39:04;;;;;;;3.13;1.30;;;;;;;;;;5007846;28;92175;-81
2023/12/26 00:41:31;;;;;;;3.65;1.17;;;;;;;;;;5019563;28;94664;-80
2023/12/26 00:43:58;;;;;;;2.63;1.23;;;;;;;;;;4991284;28;97675;-81
2023/12/26 00:46:25;;;;;;;3.53;1.13;;;;;;;;;;5018192;27;92272;-81
2023/12/26 00:48:51;;;;;;;4.35;1.33;;;;;;;;;;5000701;28;92472;-82
2023/12/26 00:51:18;;;;;;;3.47;1.30;;;;;;;;;;5000773;28;93291;-82
2023/12/26 00:53:45;;;;;;;3.65;1.42;;;;;;;;;;4998007;28;92495;-82
2023/12/26 00:56:12;;;;;;;4.15;1.80;;;;;;;;;;5006354;28;92613;-82
2023/12/26 00:58:39;;;;;;;6.00;2.17;;;;;;;;;;5037267;27;92098;-81
2023/12/26 01:01:06;;;;;;;4.88;2.10;;;;;;;;;;5026476;27;94102;-82
2023/12/26 01:03:34;;;;;;;5.80;2.38;;;;;;;;;;5020437;28;95183;-83
2023/12/26 01:06:00;;;;;;;5.57;2.40;;;;;;;;;;5020103;28;92112;-82
2023/12/26 01:08:27;;;;;;;6.75;2.60;;;;;;;;;;5016440;27;94419;-82
2023/12/26 01:10:54;;;;;;;6.30;2.40;;;;;;;;;;4986565;28;95089;-83
2023/12/26 01:13:21;;;;;;;7.18;2.72;;;;;;;;;;5009646;28;92721;-82
2023/12/26 01:15:48;;;;;;;6.07;2.45;;;;;;;;;;5008577;28;94799;-81
2023/12/26 01:18:15;;;;;;;7.50;2.80;;;;;;;;;;5012721;28;95456;-82
2023/12/26 01:20:42;;;;;;;6.80;2.90;;;;;;;;;;5004652;28;94053;-82
2023/12/26 01:23:09;;;;;;;6.63;2.63;;;;;;;;;;5008775;28;92150;-82
2023/12/26 01:25:36;;;;;;;5.88;2.58;;;;;;;;;;5009295;28;91605;-82
2023/12/26 01:28:03;;;;;;;;;;;;;;;;;;5018453;28;92347;-82
2023/12/26 01:30:30;;;;;;;6.28;2.40;;;;;;;;;;5017097;28;120817;-83
2023/12/26 01:32:57;;;;;;;6.45;2.83;;;;;;;;;;4998575;28;94726;-82
2023/12/26 01:35:24;;;;;;;6.45;2.40;;;;;;;;;;4990226;28;96913;-82
2023/12/26 01:37:50;;;;;;;5.32;2.30;;;;;;;;;;4997851;28;92763;-82
2023/12/26 01:40:17;;;;;;;5.93;2.33;;;;;;;;;;5021052;27;92317;-82
2023/12/26 01:42:47;;;;;;;6.15;2.50;;;;;;;;;;5002744;28;93130;-82
2023/12/26 01:45:13;;;;;;;7.75;2.63;;;;;;;;;;5002358;28;92219;-82
2023/12/26 01:47:41;;;;;;;;;;;;;;;;;;5003280;28;94745;-81
2023/12/26 01:50:09;;;;;;;7.15;2.10;;;;;;;;;;5003636;28;102407;-81
2023/12/26 01:52:38;;;;;;;7.68;2.35;;;;;;;;;;5002818;28;92341;-82
2023/12/26 01:55:06;;;;;;;4.97;2.05;;;;;;;;;;5002313;28;92900;-81
2023/12/26 01:57:35;;;;;;;5.82;2.15;;;;;;;;;;5000967;28;95064;-81
2023/12/26 02:00:04;;;;;;;5.25;2.08;;;;;;;;;;4985704;28;92341;-81
2023/12/26 02:02:38;;;;;;;4.55;2.00;;;;;;;;;;5020071;28;97140;-81
2023/12/26 02:05:05;;;;;;;5.47;1.80;;;;;;;;;;5001843;28;93198;-82
2023/12/26 02:07:31;;;;;;;6.95;2.20;;;;;;;;;;5002744;28;93060;-82
2023/12/26 02:10:00;;;;;;;6.93;2.00;;;;;;;;;;5017245;28;93983;-82
2023/12/26 02:12:27;;;;;;;6.90;2.42;;;;;;;;;;5021006;28;92482;-82
2023/12/26 02:14:53;;;;;;;5.97;2.00;;;;;;;;;;5038421;28;95378;-81
2023/12/26 02:17:25;;;;;;;7.55;2.20;;;;;;;;;;5011948;28;93593;-82
2023/12/26 02:19:52;;;;;;;7.53;1.98;;;;;;;;;;5003053;28;92350;-83
2023/12/26 02:22:18;;;;;;;7.57;2.28;;;;;;;;;;5002352;28;94410;-81
2023/12/26 02:24:47;;;;;;;6.70;2.20;;;;;;;;;;5005114;28;92698;-81
2023/12/26 02:27:22;;;;;;;7.28;2.20;;;;;;;;;;5002440;28;92546;-82
2023/12/26 02:29:50;;;;;;;7.00;2.00;;;;;;;;;;5002432;28;95098;-81
2023/12/26 02:32:18;;;;;;;9.45;2.40;;;;;;;;;;5003241;28;92186;-81
2023/12/26 02:34:50;;;;;;;8.77;1.98;;;;;;;;;;5022791;28;92386;-82
2023/12/26 02:37:16;;;;;;;6.72;1.90;;;;;;;;;;5021846;28;94638;-82
2023/12/26 02:39:45;;;;;;;5.97;1.90;;;;;;;;;;5002302;28;91902;-81
2023/12/26 02:42:13;;;;;;;6.43;1.90;;;;;;;;;;5022360;28;92025;-82
2023/12/26 02:44:40;;;;;;;7.07;1.90;;;;;;;;;;5026068;28;92702;-82
2023/12/26 02:47:06;;;;;;;7.22;1.80;;;;;;;;;;5014745;27;94540;-82
2023/12/26 02:49:33;;;;;;;4.90;1.77;;;;;;;;;;5003020;28;95122;-82
2023/12/26 02:52:00;;;;;;;5.63;1.90;;;;;;;;;;5003071;28;92134;-81
2023/12/26 02:54:26;;;;;;;5.45;1.60;;;;;;;;;;5001471;28;94575;-83
2023/12/26 02:56:53;;;;;;;4.88;1.58;;;;;;;;;;5001957;28;94491;-80
2023/12/26 02:59:20;;;;;;;6.57;1.60;;;;;;;;;;5011492;28;92090;-81
2023/12/26 03:01:46;;;;;;;5.90;1.63;;;;;;;;;;5021521;28;92883;-82
2023/12/26 03:04:13;;;;;;;5.40;1.70;;;;;;;;;;5022407;27;91668;-80
2023/12/26 03:06:40;;;;;;;5.13;1.40;;;;;;;;;;5042717;28;92890;-80
2023/12/26 03:09:08;;;;;;;5.28;1.55;;;;;;;;;;5038796;27;95344;-81
2023/12/26 03:11:34;;;;;;;5.05;1.50;;;;;;;;;;5022820;28;97268;-80
2023/12/26 03:14:01;;;;;;;5.00;1.60;;;;;;;;;;5037867;28;95065;-80
2023/12/26 03:16:28;;;;;;;5.95;1.50;;;;;;;;;;5022084;28;94016;-82
2023/12/26 03:18:54;;;;;;;7.15;1.65;;;;;;;;;;5005537;28;99940;-82
2023/12/26 03:21:24;;;;;;;6.15;1.60;;;;;;;;;;5023117;28;93868;-82
2023/12/26 03:23:52;;;;;;;5.88;1.60;;;;;;;;;;5021576;28;95500;-83
2023/12/26 03:26:19;;;;;;;6.85;1.50;;;;;;;;;;5021664;28;92565;-83
2023/12/26 03:28:45;;;;;;;4.80;1.52;;;;;;;;;;5027314;28;92785;-82
2023/12/26 03:31:12;;;;;;;6.63;1.50;;;;;;;;;;5006501;28;92303;-83
2023/12/26 03:33:39;;;;;;;5.05;1.50;;;;;;;;;;5023093;28;95255;-82
2023/12/26 03:36:08;;;;;;;5.22;1.38;;;;;;;;;;5020109;28;95079;-81
2023/12/26 03:38:36;;;;;;;7.47;1.60;;;;;;;;;;5018053;28;92441;-82
2023/12/26 03:41:03;;;;;;;4.55;1.30;;;;;;;;;;4997762;28;95206;-82
2023/12/26 03:43:29;;;;;;;5.53;1.30;;;;;;;;;;4982473;28;94489;-81
2023/12/26 03:45:56;;;;;;;5.07;1.20;;;;;;;;;;4980516;28;92504;-83
2023/12/26 03:48:23;;;;;;;4.93;1.38;;;;;;;;;;4982698;28;92174;-82
2023/12/26 03:50:50;;;;;;;4.60;1.40;;;;;;;;;;4985396;28;93973;-82
2023/12/26 03:53:16;;;;;;;6.65;1.20;;;;;;;;;;4989064;28;92928;-83
2023/12/26 03:55:43;;;;;;;7.07;1.45;;;;;;;;;;5000774;28;95222;-82
2023/12/26 03:58:09;;;;;;;6.72;1.50;;;;;;;;;;4989759;28;97295;-82
2023/12/26 04:00:36;;;;;;;5.00;1.23;;;;;;;;;;4984659;28;94829;-81
2023/12/26 04:03:03;;;;;;;5.80;1.20;;;;;;;;;;4986319;28;95754;-82
2023/12/26 04:05:30;;;;;;;6.78;1.33;;;;;;;;;;4986079;28;93491;-82
2023/12/26 04:07:56;;;;;;;4.30;1.13;;;;;;;;;;4982161;28;92805;-82
2023/12/26 04:10:23;;;;;;;3.95;1.17;;;;;;;;;;4998697;28;94785;-81
2023/12/26 04:12:49;;;;;;;3.58;1.05;;;;;;;;;;5009025;28;93736;-81
2023/12/26 04:15:16;;;;;;;5.95;1.30;;;;;;;;;;5001196;28;95525;-82
2023/12/26 04:17:43;;;;;;;7.05;1.10;;;;;;;;;;5001609;28;91658;-82
2023/12/26 04:20:10;;;;;;;5.40;1.30;;;;;;;;;;5000242;28;94968;-82
2023/12/26 04:22:36;;;;;;;6.13;1.20;;;;;;;;;;5000836;28;94149;-81
2023/12/26 04:25:05;;;;;;;4.80;1.20;;;;;;;;;;4998395;28;94543;-82
2023/12/26 04:27:31;;;;;;;9.70;1.30;;;;;;;;;;5002369;28;94902;-82
2023/12/26 04:29:58;;;;;;;12.00;1.40;;;;;;;;;;5001106;28;92485;-81
2023/12/26 04:32:26;;;;;;;10.55;1.70;;;;;;;;;;5016707;28;92513;-82
2023/12/26 04:34:53;;;;;;;5.03;1.08;;;;;;;;;;5002975;28;95175;-82
2023/12/26 04:37:20;;;;;;;8.13;1.27;;;;;;;;;;5001183;28;92179;-81
2023/12/26 04:39:47;;;;;;;6.60;1.40;;;;;;;;;;5001094;28;94743;-81
2023/12/26 04:42:13;;;;;;;10.25;1.52;;;;;;;;;;4983658;28;94696;-82
2023/12/26 04:44:40;;;;;;;6.68;1.17;;;;;;;;;;5000759;28;92597;-82
2023/12/26 04:47:07;;;;;;;4.85;1.10;;;;;;;;;;5000839;28;95025;-81
2023/12/26 04:49:34;;;;;;;6.72;1.10;;;;;;;;;;5000016;27;95183;-82
2023/12/26 04:52:03;;;;;;;5.25;1.17;;;;;;;;;;5001670;27;92147;-81
2023/12/26 04:54:30;;;;;;;7.43;1.10;;;;;;;;;;5018920;28;96813;-82
2023/12/26 04:56:57;;;;;;;4.38;1.10;;;;;;;;;;4988167;28;92389;-82
2023/12/26 04:59:23;;;;;;;7.50;1.27;;;;;;;;;;5000156;28;94920;-81
2023/12/26 05:01:51;;;;;;;5.88;1.20;;;;;;;;;;5000690;28;95077;-83
2023/12/26 05:04:18;;;;;;;6.07;1.10;;;;;;;;;;4982541;27;92545;-82
2023/12/26 05:06:44;;;;;;;4.55;1.17;;;;;;;;;;4999193;28;94330;-82
2023/12/26 05:09:11;;;;;;;5.63;1.20;;;;;;;;;;5000827;28;95695;-83
2023/12/26 05:11:38;;;;;;;7.80;1.17;;;;;;;;;;4983838;28;92369;-81
2023/12/26 05:14:05;;;;;;;5.15;1.15;;;;;;;;;;4982586;28;94869;-83
2023/12/26 05:16:31;;;;;;;5.25;1.10;;;;;;;;;;4987254;28;95580;-81
2023/12/26 05:18:58;;;;;;;6.90;1.25;;;;;;;;;;4983235;28;92935;-80
2023/12/26 05:21:25;;;;;;;4.68;1.13;;;;;;;;;;5008177;28;95025;-81
2023/12/26 05:23:52;;;;;;;3.80;0.90;;;;;;;;;;4995446;28;92708;-81
2023/12/26 05:26:19;;;;;;;6.88;1.30;;;;;;;;;;5000931;28;94592;-80
2023/12/26 05:28:47;;;;;;;3.17;0.90;;;;;;;;;;5012740;28;95502;-80
2023/12/26 05:31:17;;;;;;;5.65;1.00;;;;;;;;;;5003913;28;91776;-80
2023/12/26 05:33:44;;;;;;;7.47;1.23;;;;;;;;;;5013333;28;94204;-81
2023/12/26 05:36:11;;;;;;;4.70;1.10;;;;;;;;;;5013960;28;94835;-80
2023/12/26 05:38:38;;;;;;;4.85;1.17;;;;;;;;;;4993371;28;94562;-81
2023/12/26 05:41:06;;;;;;;5.90;1.20;;;;;;;;;;5011318;28;94526;-80
2023/12/26 05:43:33;;;;;;;6.72;1.10;;;;;;;;;;5006890;28;92594;-80
2023/12/26 05:46:01;;;;;;;5.53;1.10;;;;;;;;;;5003501;28;94548;-80
2023/12/26 05:48:28;;;;;;;8.23;1.20;;;;;;;;;;5005571;28;94936;-81
2023/12/26 05:50:55;;;;;;;6.53;1.25;;;;;;;;;;5022998;28;92171;-81
2023/12/26 05:53:23;;;;;;;6.93;1.23;;;;;;;;;;5023084;28;94092;-81
2023/12/26 05:55:50;;;;;;;6.10;1.20;;;;;;;;;;5023315;28;91896;-81
2023/12/26 05:58:17;;;;;;;6.95;1.30;;;;;;;;;;5022626;28;92064;-81
2023/12/26 06:00:43;;;;;;;5.28;1.13;;;;;;;;;;5008593;28;94868;-81
2023/12/26 06:03:10;;;;;;;7.50;1.60;;;;;;;;;;5015020;28;95963;-81
2023/12/26 06:05:37;;;;;;;7.30;1.38;;;;;;;;;;5009855;28;97721;-82
2023/12/26 06:08:04;;;;;;;6.70;1.30;;;;;;;;;;5019087;28;95587;-81
2023/12/26 06:10:31;;;;;;;7.97;1.23;;;;;;;;;;5010111;28;94049;-81
2023/12/26 06:12:58;;;;;;;6.57;1.10;;;;;;;;;;5012527;28;95004;-81
2023/12/26 06:15:24;;;;;;;6.78;1.40;;;;;;;;;;5010148;28;95130;-80
2023/12/26 06:17:51;;;;;;;7.70;1.02;;;;;;;;;;5008183;28;92006;-81
2023/12/26 06:20:21;;;;;;;5.70;1.27;;;;;;;;;;5001344;28;94843;-83
2023/12/26 06:22:48;;;;;;;6.00;1.20;;;;;;;;;;5004835;28;93034;-82
2023/12/26 06:25:14;;;;;;;4.35;1.02;;;;;;;;;;5038337;27;95114;-82
2023/12/26 06:27:41;;;;;;;6.05;1.10;;;;;;;;;;5007926;28;95163;-82
2023/12/26 06:30:10;;;;;;;7.10;1.10;;;;;;;;;;5002086;28;92197;-82
2023/12/26 06:32:37;;;;;;;5.55;1.08;;;;;;;;;;5043116;28;94642;-82
2023/12/26 06:35:04;;;;;;;4.90;1.00;;;;;;;;;;5035168;28;94377;-81
2023/12/26 06:37:31;;;;;;;;;;;;;;;;;;5002626;28;92158;-83
2023/12/26 06:39:58;;;;;;;6.97;1.25;;;;;;;;;;5020940;28;92365;-83
2023/12/26 06:42:25;;;;;;;;;;;;;;;;;;5022767;27;94849;-84
2023/12/26 06:44:52;;;;;;;5.78;1.00;;;;;;;;;;5014446;28;91537;-84
2023/12/26 06:47:19;;;;;;;4.20;0.90;;;;;;;;;;5002633;28;95259;-83
2023/12/26 06:49:46;;;;;;;8.57;1.20;;;;;;;;;;5002868;28;92745;-82
2023/12/26 06:52:16;;;;;;;8.50;1.38;;;;;;;;;;5002429;28;94607;-83
2023/12/26 06:54:45;;;;;;;5.13;1.00;;;;;;;;;;4986026;28;95099;-83
2023/12/26 06:57:18;;;;;;;9.73;1.30;;;;;;;;;;5002799;28;92134;-83
2023/12/26 06:59:50;;;;;;;7.78;1.20;;;;;;;;;;5015673;28;94613;-82
2023/12/26 07:02:17;;;;;;;6.55;0.90;;;;;;;;;;5013447;27;95249;-82
2023/12/26 07:04:44;;;;;;;7.45;1.10;;;;;;;;;;5024214;28;92794;-83
2023/12/26 07:07:11;;;;;;;6.72;1.13;;;;;;;;;;5023525;28;92565;-81
2023/12/26 07:09:38;;;;;;;7.10;1.10;;;;;;;;;;5009193;28;91639;-82
2023/12/26 07:12:05;;;;;;;5.75;1.08;;;;;;;;;;4997853;28;92564;-83
2023/12/26 07:14:32;;;;;;;;;;;;;;;;;;4983532;28;99487;-83
2023/12/26 07:16:58;;;;;;;5.97;1.10;;;;;;;;;;5001368;28;94964;-82
2023/12/26 07:19:25;;;;;;;10.15;1.40;;;;;;;;;;5002926;28;95441;-82
2023/12/26 07:21:52;;;;;;;7.43;1.27;;;;;;;;;;5008157;28;93022;-82
2023/12/26 07:24:20;;;;;;;8.52;1.38;;;;;;;;;;5033599;28;92035;-82
2023/12/26 07:26:49;;;;;;;6.47;1.20;;;;;;;;;;5011048;27;92391;-82
2023/12/26 07:29:16;;;;;;;6.95;1.30;;;;;;;;;;5014357;28;92031;-81
2023/12/26 07:31:42;;;;;;;8.63;1.17;;;;;;;;;;5038465;27;93698;-80
2023/12/26 07:34:09;;;;;;;6.47;1.27;;;;;;;;;;5016395;27;93390;-79
2023/12/26 07:36:39;;;;;;;7.28;1.20;;;;;;;;;;5006655;28;92419;-81
2023/12/26 07:39:05;;;;;;;6.40;1.10;;;;;;;;;;5001638;28;93401;-81
2023/12/26 07:41:32;;;;;;;6.72;1.45;;;;;;;;;;4987226;28;97952;-80
2023/12/26 07:43:59;;;;;;;9.00;1.42;;;;;;;;;;4986761;28;92632;-80
2023/12/26 07:46:25;;;;;;;8.20;1.30;;;;;;;;;;5016717;28;92743;-82
2023/12/26 07:48:52;;;;;;;9.95;1.25;;;;;;;;;;5005085;28;92847;-83
2023/12/26 07:51:19;;;;;;;7.03;1.25;;;;;;;;;;5002821;28;92688;-84
2023/12/26 07:53:47;;;;;;;7.13;1.42;;;;;;;;;;5002629;28;93114;-83
2023/12/26 07:56:14;;;;;;;4.65;1.10;;;;;;;;;;5000756;28;92185;-83
2023/12/26 07:58:41;;;;;;;7.80;1.30;;;;;;;;;;5002802;28;92201;-82
2023/12/26 08:01:08;;;;;;;3.75;1.10;;;;;;;;;;4998632;28;93150;-82
2023/12/26 08:03:34;;;;;;;10.60;1.40;;;;;;;;;;5008184;28;92709;-83
2023/12/26 08:06:01;;;;;;;7.95;1.27;;;;;;;;;;5000031;28;94852;-83
2023/12/26 08:08:28;;;;;;;5.20;1.00;;;;;;;;;;5001011;28;92732;-82
2023/12/26 08:10:55;;;;;;;7.32;1.08;;;;;;;;;;5003553;28;92596;-80
2023/12/26 08:13:21;;;;;;;11.75;1.80;;;;;;;;;;4984079;28;95564;-83
2023/12/26 08:15:48;;;;;;;7.25;1.40;;;;;;;;;;5001590;27;92409;-81
2023/12/26 08:18:15;;;;;;;5.88;0.90;;;;;;;;;;5001382;28;92540;-82
2023/12/26 08:20:42;;;;;;;10.32;1.25;;;;;;;;;;4983462;28;94942;-81
2023/12/26 08:23:08;;;;;;;5.65;1.17;;;;;;;;;;5001603;28;91578;-80
2023/12/26 08:25:37;;;;;;;6.03;1.40;;;;;;;;;;5001526;28;93044;-81
2023/12/26 08:28:04;;;;;;;8.20;1.42;;;;;;;;;;4999701;28;93607;-83
2023/12/26 08:30:30;;;;;;;8.05;1.38;;;;;;;;;;5002927;28;95146;-84
2023/12/26 08:33:01;;;;;;;6.03;1.15;;;;;;;;;;5017050;28;97617;-82
2023/12/26 08:35:28;;;;;;;5.78;1.17;;;;;;;;;;5008301;28;92155;-83
2023/12/26 08:37:55;;;;;;;5.95;1.17;;;;;;;;;;5002082;28;92881;-82
2023/12/26 08:40:23;;;;;;;7.10;1.30;;;;;;;;;;5003062;28;92683;-84
2023/12/26 08:42:49;;;;;;;6.68;1.10;;;;;;;;;;5004083;28;92341;-82
2023/12/26 08:45:16;;;;;;;5.60;1.25;;;;;;;;;;5003153;28;94996;-83
2023/12/26 08:47:43;;;;;;;6.22;1.27;;;;;;;;;;5002335;28;92206;-83
2023/12/26 08:50:10;;;;;;;5.63;1.00;;;;;;;;;;5016291;27;93956;-81
2023/12/26 08:52:36;;;;;;;5.57;1.08;;;;;;;;;;5006292;28;94783;-83
2023/12/26 08:55:03;;;;;;;4.55;0.93;;;;;;;;;;4985543;28;95171;-82
2023/12/26 08:57:30;;;;;;;6.50;1.10;;;;;;;;;;5016982;28;94807;-83
2023/12/26 08:59:59;;;;;;;6.53;1.20;;;;;;;;;;4990852;28;95677;-82
2023/12/26 09:02:26;;;;;;;4.28;1.10;;;;;;;;;;5005074;28;92616;-82
2023/12/26 09:04:53;;;;;;;6.13;1.10;;;;;;;;;;5017590;28;92372;-80
2023/12/26 09:07:19;;;;;;;5.97;1.10;;;;;;;;;;5006365;28;94549;-82
2023/12/26 09:09:46;;;;;;;5.10;1.00;;;;;;;;;;5022110;28;92368;-83
2023/12/26 09:12:13;;;;;;;5.05;0.95;;;;;;;;;;5004617;28;94527;-83
2023/12/26 09:14:40;;;;;;;5.07;1.10;;;;;;;;;;5022027;28;95324;-82
2023/12/26 09:17:08;;;;;;;4.88;1.00;;;;;;;;;;5003004;28;92327;-81
2023/12/26 09:19:35;;;;;;;3.97;0.93;;;;;;;;;;4996852;28;97308;-84
2023/12/26 09:22:02;;;;;;;4.25;1.08;;;;;;;;;;5039823;28;92288;-83
2023/12/26 09:24:29;;;;;;;4.18;0.98;;;;;;;;;;5021087;28;92297;-84
2023/12/26 09:26:56;;;;;;;4.65;1.02;;;;;;;;;;5006083;28;95146;-83
2023/12/26 09:29:23;;;;;;;10.27;1.13;;;;;;;;;;5022940;28;92178;-85
2023/12/26 09:31:52;;;;;;;5.95;1.15;;;;;;;;;;5019995;28;94577;-86
2023/12/26 09:34:19;;;;;;;5.68;1.27;;;;;;;;;;5020633;27;92471;-85
2023/12/26 09:36:46;;;;;;;5.25;1.00;;;;;;;;;;5010081;28;91813;-79
2023/12/26 09:39:15;;;;;;;4.85;1.20;;;;;;;;;;5025123;27;93879;-85
2023/12/26 09:41:52;;;;;;;6.90;1.10;;;;;;;;;;5024483;28;92633;-85
2023/12/26 09:44:20;;;;;;;4.72;1.10;;;;;;;;;;5023406;27;94756;-85
2023/12/26 09:46:48;;;;;;;4.90;0.98;;;;;;;;;;5018580;28;95089;-85
2023/12/26 09:49:20;;;;;;;5.47;1.10;;;;;;;;;;5005760;28;99845;-85
2023/12/26 09:51:52;;;;;;;3.80;1.02;;;;;;;;;;5005975;28;92289;-85
2023/12/26 09:54:20;;;;;;;5.03;0.77;;;;;;;;;;4998730;28;94502;-86
2023/12/26 09:56:47;;;;;;;4.63;0.90;;;;;;;;;;4990323;28;92269;-85
2023/12/26 09:59:16;;;;;;;3.92;1.00;;;;;;;;;;5005400;28;92422;-85
2023/12/26 10:01:44;;;;;;;3.78;1.00;;;;;;;;;;4997402;28;91552;-84
2023/12/26 10:04:12;;;;;;;3.33;1.00;;;;;;;;;;4994445;28;94268;-85
2023/12/26 10:06:39;;;;;;;;;;;;;;;;;;5019215;28;93042;-86
2023/12/26 10:09:05;;;;;;;3.75;1.00;;;;;;;;;;5012190;28;94854;-85
2023/12/26 10:11:32;;;;;;;5.70;1.17;;;;;;;;;;5037131;27;95095;-85
2023/12/26 10:13:59;;;;;;;3.88;1.00;;;;;;;;;;5026223;28;95689;-85
2023/12/26 10:16:26;;;;;;;6.13;1.20;;;;;;;;;;5022615;28;92447;-85
2023/12/26 10:18:54;;;;;;;3.97;1.00;;;;;;;;;;5026255;28;94241;-85
2023/12/26 10:21:21;;;;;;;;;;;;;;;;;;5016429;28;95687;-85
2023/12/26 10:23:50;;;;;;;4.35;0.90;;;;;;;;;;5035414;28;94057;-86
2023/12/26 10:26:17;;;;;;;3.95;1.00;;;;;;;;;;4988927;28;94347;-85
2023/12/26 10:28:44;;;;;;;4.18;1.10;;;;;;;;;;5019239;28;93728;-86
2023/12/26 10:31:29;;;;;;;3.83;1.00;;;;;;;;;;4992553;28;94949;-86
2023/12/26 10:34:11;;;;;;;4.05;0.90;;;;;;;;;;4970709;28;98093;-85
2023/12/26 10:36:45;;;;;;;4.90;1.00;;;;;;;;;;5018565;28;92499;-87
2023/12/26 10:39:12;;;;;;;4.70;0.95;;;;;;;;;;5000221;28;94315;-86
2023/12/26 10:41:46;;;;;;;5.72;1.00;;;;;;;;;;5005119;28;92766;-86
2023/12/26 10:44:14;;;;;;;3.30;0.90;;;;;;;;;;5005156;28;92093;-85
2023/12/26 10:46:41;;;;;;;4.80;0.98;;;;;;;;;;4985236;28;95489;-86
2023/12/26 10:49:21;;;;;;;4.55;0.98;;;;;;;;;;5005813;28;92287;-86
2023/12/26 10:51:51;;;;;;;3.78;1.08;;;;;;;;;;4997794;28;92989;-86
2023/12/26 10:54:19;;;;;;;5.43;1.00;;;;;;;;;;4985631;28;94413;-85
2023/12/26 10:56:47;;;;;;;4.10;1.02;;;;;;;;;;5006109;28;92505;-85
2023/12/26 13:52:30;;;;;;;5.45;1.20;;;;;;;;;;5023513;28;95271;-82
2023/12/26 13:54:57;;;;;;;6.70;1.48;;;;;;;;;;5023725;28;92904;-82
2023/12/26 13:57:24;;;;;;;6.70;1.33;;;;;;;;;;5022539;28;92248;-82
2023/12/26 13:59:50;;;;;;;4.13;1.20;;;;;;;;;;5025491;28;92889;-80
2023/12/26 14:02:17;;;;;;;5.60;1.20;;;;;;;;;;5024854;28;92698;-82
2023/12/26 14:04:44;;;;;;;5.93;1.70;;;;;;;;;;5023817;28;92752;-80
2023/12/26 14:07:31;;;;;;;5.70;1.38;;;;;;;;;;5022917;28;92100;-81
2023/12/26 14:10:16;;;;;;;4.97;1.30;;;;;;;;;;5023813;28;92812;-82
2023/12/26 14:13:05;;;;;;;6.10;1.30;;;;;;;;;;5007440;28;99131;-82
2023/12/26 14:15:50;;;;;;;6.68;1.30;;;;;;;;;;5020909;28;95224;-81
2023/12/26 14:18:36;;;;;;;6.75;1.35;;;;;;;;;;5022083;27;92608;-83
2023/12/26 14:21:24;;;;;;;6.03;1.30;;;;;;;;;;5039871;27;92666;-83
2023/12/26 14:23:51;;;;;;;;;;;;;;;;;;5023224;28;94619;-83
2023/12/26 14:26:36;;;;;;;5.63;1.35;;;;;;;;;;5027654;28;97115;-82
2023/12/26 14:29:21;;;;;;;6.88;1.30;;;;;;;;;;5022286;28;92765;-83
2023/12/26 14:31:48;;;;;;;4.78;1.20;;;;;;;;;;4998541;28;92348;-81
2023/12/26 14:34:15;;;;;;;4.28;1.08;;;;;;;;;;5007167;28;98995;-83
2023/12/26 14:37:01;;;;;;;5.32;1.20;;;;;;;;;;4983111;28;95408;-82
2023/12/26 14:39:47;;;;;;;5.82;1.30;;;;;;;;;;4990897;28;92252;-82
2023/12/26 14:42:14;;;;;;;5.95;1.20;;;;;;;;;;5014986;27;94413;-81
2023/12/26 14:44:41;;;;;;;6.53;1.10;;;;;;;;;;4987544;28;92781;-84
2023/12/26 14:47:07;;;;;;;5.53;1.17;;;;;;;;;;5001745;28;92221;-80
2023/12/26 14:49:34;;;;;;;6.07;1.40;;;;;;;;;;4989480;28;94715;-81
2023/12/26 14:52:20;;;;;;;4.88;1.35;;;;;;;;;;5000673;28;92386;-82
2023/12/26 14:55:07;;;;;;;5.35;1.15;;;;;;;;;;4995941;28;99541;-82
2023/12/26 14:57:33;;;;;;;3.92;1.20;;;;;;;;;;5002021;28;93176;-82
2023/12/26 15:00:00;;;;;;;4.43;1.15;;;;;;;;;;5019961;28;91519;-82
2023/12/26 15:02:27;;;;;;;5.35;1.10;;;;;;;;;;5003588;27;92525;-82
2023/12/26 15:04:53;;;;;;;5.05;1.20;;;;;;;;;;5021584;27;93157;-82
2023/12/26 15:07:20;;;;;;;3.72;1.00;;;;;;;;;;5035655;27;94793;-82
2023/12/26 15:09:47;;;;;;;4.20;1.10;;;;;;;;;;5018935;28;96375;-81
2023/12/26 15:12:14;;;;;;;6.10;1.15;;;;;;;;;;5019871;28;94536;-83
2023/12/26 15:14:41;;;;;;;4.13;1.20;;;;;;;;;;5020303;28;95193;-81
2023/12/26 15:17:10;;;;;;;3.67;1.05;;;;;;;;;;5022295;28;93391;-81
2023/12/26 15:19:37;;;;;;;4.00;1.13;;;;;;;;;;5022909;28;92289;-82
2023/12/26 15:22:04;;;;;;;3.92;1.13;;;;;;;;;;5004582;28;94891;-82
2023/12/26 15:24:31;;;;;;;3.83;1.20;;;;;;;;;;5017183;28;99010;-82
2023/12/26 15:26:57;;;;;;;5.03;1.30;;;;;;;;;;5002474;28;92169;-82
2023/12/26 15:29:24;;;;;;;4.47;1.00;;;;;;;;;;5000929;28;94854;-81
2023/12/26 15:31:51;;;;;;;3.88;1.10;;;;;;;;;;4999490;28;97561;-81
2023/12/26 15:34:18;;;;;;;5.00;1.20;;;;;;;;;;5003087;28;92414;-81
2023/12/26 15:36:44;;;;;;;2.33;1.02;;;;;;;;;;4992282;28;94744;-82
2023/12/26 15:39:11;;;;;;;4.47;1.10;;;;;;;;;;5021130;28;92298;-82
2023/12/26 15:41:44;;;;;;;3.22;1.10;;;;;;;;;;5021765;28;93111;-81
2023/12/26 15:44:11;;;;;;;3.47;0.90;;;;;;;;;;5019731;28;93695;-81
2023/12/26 15:46:38;;;;;;;2.17;0.90;;;;;;;;;;5000785;28;92416;-81
2023/12/26 15:49:05;;;;;;;3.28;1.00;;;;;;;;;;5009152;28;92737;-81
2023/12/26 15:51:32;;;;;;;3.67;1.10;;;;;;;;;;5009107;28;95545;-82
2023/12/26 15:53:58;;;;;;;3.67;1.00;;;;;;;;;;4999847;28;92229;-82
2023/12/26 15:56:27;;;;;;;3.58;1.05;;;;;;;;;;5021264;28;94861;-81
2023/12/26 15:58:54;;;;;;;4.72;1.10;;;;;;;;;;5021546;28;92441;-82
2023/12/26 16:01:21;;;;;;;3.13;0.98;;;;;;;;;;5020439;28;92730;-82
2023/12/26 16:03:52;;;;;;;5.57;1.17;;;;;;;;;;5022014;28;92145;-82
2023/12/26 16:06:23;;;;;;;4.30;1.20;;;;;;;;;;5020940;27;92072;-81
2023/12/26 16:08:50;;;;;;;3.92;1.00;;;;;;;;;;5021506;28;93768;-82
2023/12/26 16:11:17;;;;;;;3.28;1.05;;;;;;;;;;5022390;27;92686;-82
2023/12/26 16:13:43;;;;;;;3.88;1.00;;;;;;;;;;5005105;28;91482;-82
2023/12/26 16:16:10;;;;;;;5.13;1.13;;;;;;;;;;5023492;28;92347;-82
2023/12/26 16:18:41;;;;;;;4.15;1.00;;;;;;;;;;5020938;28;92275;-82
2023/12/26 16:21:08;;;;;;;3.38;0.95;;;;;;;;;;5020020;28;94504;-81
2023/12/26 16:23:35;;;;;;;3.30;1.00;;;;;;;;;;4991052;28;95315;-80
2023/12/26 16:26:03;;;;;;;3.28;1.05;;;;;;;;;;5000550;28;92601;-82
2023/12/26 16:28:31;;;;;;;2.53;1.08;;;;;;;;;;5017920;28;96845;-81
2023/12/26 16:30:58;;;;;;;3.47;1.23;;;;;;;;;;5000065;28;92752;-82
2023/12/26 16:33:25;;;;;;;5.25;1.40;;;;;;;;;;5010581;28;93541;-81
2023/12/26 16:35:52;;;;;;;3.22;1.08;;;;;;;;;;5004483;28;92836;-81
2023/12/26 16:38:19;;;;;;;3.33;1.23;;;;;;;;;;4999801;28;94618;-80
2023/12/26 16:40:45;;;;;;;5.38;1.90;;;;;;;;;;4984871;28;93801;-80
2023/12/26 16:43:12;;;;;;;8.20;2.10;;;;;;;;;;5009622;28;92919;-81
2023/12/26 16:45:39;;;;;;;5.50;1.70;;;;;;;;;;4999149;28;94456;-81
2023/12/26 16:48:07;;;;;;;5.57;1.70;;;;;;;;;;4999474;28;97898;-82
2023/12/26 16:50:34;;;;;;;6.63;1.70;;;;;;;;;;5004908;28;92782;-81
2023/12/26 16:53:00;;;;;;;5.53;1.63;;;;;;;;;;5012204;28;92583;-81
2023/12/26 16:55:27;;;;;;;5.32;1.77;;;;;;;;;;4999807;28;92657;-81
2023/12/26 16:57:53;;;;;;;4.97;1.58;;;;;;;;;;5014043;28;92684;-81
2023/12/26 17:00:20;;;;;;;6.47;1.90;;;;;;;;;;5004509;28;92586;-81
2023/12/26 17:02:47;;;;;;;6.88;2.05;;;;;;;;;;4986322;28;94196;-82
2023/12/26 17:05:14;;;;;;;4.38;1.67;;;;;;;;;;5001115;28;92147;-82
2023/12/26 17:07:42;;;;;;;5.80;2.13;;;;;;;;;;5016822;28;94509;-82
2023/12/26 17:10:09;;;;;;;7.60;1.83;;;;;;;;;;5020833;27;97597;-82
2023/12/26 17:12:35;;;;;;;5.40;1.80;;;;;;;;;;5023791;28;92486;-82
2023/12/26 17:15:02;;;;;;;5.88;1.83;;;;;;;;;;5022763;28;94549;-82
2023/12/26 17:17:29;;;;;;;6.75;1.70;;;;;;;;;;5014263;27;92641;-82
2023/12/26 17:19:56;;;;;;;5.60;1.90;;;;;;;;;;5007983;28;92300;-83
2023/12/26 17:22:23;;;;;;;5.18;1.92;;;;;;;;;;5021866;28;95036;-83
2023/12/26 17:24:50;;;;;;;6.88;2.20;;;;;;;;;;5004565;28;92035;-83
2023/12/26 17:27:17;;;;;;;6.60;1.90;;;;;;;;;;5014981;28;92140;-82
2023/12/26 17:29:43;;;;;;;5.55;2.10;;;;;;;;;;5010740;28;92799;-82
2023/12/26 17:32:10;;;;;;;5.82;2.00;;;;;;;;;;5020768;28;99834;-82
2023/12/26 17:34:36;;;;;;;7.22;2.10;;;;;;;;;;5020771;28;94676;-82
2023/12/26 17:37:03;;;;;;;5.90;2.10;;;;;;;;;;5014803;28;95110;-82
2023/12/26 17:39:30;;;;;;;5.60;2.20;;;;;;;;;;4998259;28;93725;-81
2023/12/26 17:41:57;;;;;;;5.03;2.00;;;;;;;;;;5003311;28;94828;-82
2023/12/26 17:44:24;;;;;;;7.28;2.20;;;;;;;;;;5006008;28;92740;-83